Meteo Giornale » Osservazioni meteo Stati Uniti (USA) » Eastman
ore: 01:35 - Osservazioni Meteo Eastman
Lat. 32° 13' N Lon. 83° 8' W Alt. 93 metri s.l.m.
23 °C
Sereno
Temp. 24 Ore
20 °C
33 °C
Nord
0 Km/h
Dew point 23 °C
Umidità 100 %
Visibilità 10 Km
Il sole sorge alle ore 07:07
Il sole tramonta alle ore 19:57
| Data e Ora | Cielo e Fenomeni | T °C | DP °C | Um. % | Pres. hPa | Vis. km | Vento km/h | |
|---|---|---|---|---|---|---|---|---|
| Oggi h: 01:35 | Sereno | 23 | 23 | 100 | 1020 | 10 | N 0 | |
| Oggi h: 01:15 | Sereno | 24 | 23 | 94 | 1020 | 10 | N 0 | |
| Oggi h: 00:35 | Sereno | 25 | 23 | 88 | 1020 | 10 | N 5.5 | |
| Oggi h: 00:15 | Sereno | 25 | 23 | 88 | 1020 | 10 | S/SE 7.4 | |
| Ieri h: 23:35 | Sereno | 25 | 23 | 88 | 1020 | 10 | S/SE 7.4 | |
| Ieri h: 23:15 | Nuvoloso | 26 | 23 | 83 | 1020 | 10 | S/SE 7.4 | |
| Ieri h: 22:35 | Molto Nuvoloso | 26 | 23 | 83 | 1020 | 10 | S/SE 7.4 | |
| Ieri h: 22:15 | Coperto | 27 | 22 | 74 | 1019 | 10 | N 5.5 | |
| Ieri h: 21:35 | Sereno | 25 | 24 | 94 | 1019 | 10 | N 0 | |
| Ieri h: 21:15 | Sereno | 25 | 24 | 94 | 1018 | 10 | N 0 | |
| Ieri h: 19:35 | Sereno | 31 | 21 | 55 | 1018 | 10 | E/NE 7.4 | |
| Ieri h: 19:15 | Sereno | 32 | 21 | 52 | 1018 | 10 | E/NE 7.4 | |
| Ieri h: 18:15 | Nuvoloso | 33 | 21 | 49 | 1018 | 10 | E 9.3 | |
| Ieri h: 17:35 | Nuvoloso | 32 | 21 | 52 | 1018 | 10 | N 5.5 | |
| Ieri h: 17:15 | Nuvoloso | 33 | 21 | 49 | 1018 | 10 | E/NE 9.3 | |
| Ieri h: 16:35 | Nuvoloso | 32 | 21 | 52 | 1018 | 11 | N 5.5 | |
| Ieri h: 16:15 | Nuvoloso | 33 | 21 | 49 | 1019 | 10 | SE 13 | |
| Ieri h: 15:35 | Nuvoloso | 33 | 21 | 49 | 1019 | 10 | NE 7.4 | |
| Ieri h: 15:15 | Nuvoloso | 31 | 21 | 55 | 1020 | 10 | E/SE 7.4 | |
| Ieri h: 14:35 | Sereno | 31 | 21 | 55 | 1020 | 10 | E/NE 11.1 | |
| Ieri h: 14:15 | Sereno | 31 | 22 | 58 | 1020 | 10 | E 11.1 | |
| Ieri h: 13:35 | Sereno | 31 | 22 | 58 | 1021 | 10 | E/SE 11.1 | |
| Ieri h: 13:15 | Sereno | 30 | 22 | 62 | 1021 | 10 | E 9.3 | |
| Ieri h: 12:35 | Molto Nuvoloso | 30 | 22 | 62 | 1021 | 10 | E 9.3 | |
| Ieri h: 12:15 | Molto Nuvoloso | 28 | 22 | 69 | 1021 | 10 | N 0 | |
| Ieri h: 11:35 | Nuvoloso | 28 | 22 | 69 | 1021 | 10 | N 0 | |
| Ieri h: 11:15 | Sereno | 27 | 23 | 78 | 1021 | 10 | N 0 | |
| Ieri h: 10:35 | Nuvoloso | 24 | 24 | 100 | 1021 | 10 | N 5.5 | |
| Ieri h: 10:15 | Molto Nuvoloso | 23 | 23 | 100 | 1021 | 10 | N 0 | |
| Ieri h: 09:35 | Foschia | 23 | 22 | 94 | 1021 | 2 | N 5.5 | |
| Ieri h: 09:15 | Nebbia | 22 | 22 | 100 | 1021 | 2 | N 0 | |
| Ieri h: 08:35 | Foschia | 21 | 21 | 100 | 1021 | 8 | N 0 | |
| Ieri h: 08:15 | Molto Nuvoloso | 20 | 20 | 100 | 1021 | 11 | N 0 | |
| Ieri h: 07:35 | Foschia | 20 | 20 | 100 | 1020 | 5 | N 0 | |
| Ieri h: 07:15 | Foschia | 20 | 20 | 100 | 1020 | 2 | N 0 | |
| Ieri h: 06:35 | Foschia | 21 | 20 | 94 | 1020 | 2 | N 0 | |
| Ieri h: 06:15 | Foschia | 20 | 20 | 100 | 1020 | 2 | N 0 | |
| Ieri h: 05:35 | Foschia | 20 | 20 | 100 | 1020 | 2 | N 0 | |
| Ieri h: 05:15 | Foschia | 21 | 20 | 94 | 1020 | 5 | N 0 | |
| Ieri h: 04:35 | Foschia | 21 | 20 | 94 | 1020 | 5 | N 0 | |
| Ieri h: 04:15 | Foschia | 21 | 20 | 94 | 1020 | 5 | N 0 | |
| Ieri h: 03:35 | Sereno | 21 | 21 | 100 | 1020 | 11 | N 0 | |
| Ieri h: 03:15 | Foschia | 21 | 21 | 100 | 1020 | 2 | N 0 | |
| Ieri h: 02:35 | Foschia | 21 | 21 | 100 | 1020 | 2 | N 0 | |
| Ieri h: 02:15 | Foschia | 21 | 21 | 100 | 1020 | 2 | N 0 | |
| Ieri h: 01:35 | Foschia | 21 | 21 | 100 | 1020 | 2 | N 0 | |



